sensor_id;sensor_type;location;lat;lon;timestamp;temperature;humidity
58638;DHT22;54976;51.510;7.522;2023-01-25T00:02:33;1.90;95.10
58638;DHT22;54976;51.510;7.522;2023-01-25T00:05:34;2.00;95.10
58638;DHT22;54976;51.510;7.522;2023-01-25T00:08:34;1.90;94.80
58638;DHT22;54976;51.510;7.522;2023-01-25T00:11:35;2.10;95.10
58638;DHT22;54976;51.510;7.522;2023-01-25T00:14:36;1.80;95.00
58638;DHT22;54976;51.510;7.522;2023-01-25T00:17:37;2.30;95.00
58638;DHT22;54976;51.510;7.522;2023-01-25T00:20:38;1.90;94.90
58638;DHT22;54976;51.510;7.522;2023-01-25T00:23:38;2.40;94.90
58638;DHT22;54976;51.510;7.522;2023-01-25T00:26:39;2.20;94.80
58638;DHT22;54976;51.510;7.522;2023-01-25T00:29:43;2.00;94.80
58638;DHT22;54976;51.510;7.522;2023-01-25T00:33:01;2.00;95.20
58638;DHT22;54976;51.510;7.522;2023-01-25T00:39:21;2.00;95.10
58638;DHT22;54976;51.510;7.522;2023-01-25T00:42:22;2.20;95.30
58638;DHT22;54976;51.510;7.522;2023-01-25T00:45:22;2.10;95.10
58638;DHT22;54976;51.510;7.522;2023-01-25T00:48:23;2.00;95.00
58638;DHT22;54976;51.510;7.522;2023-01-25T00:51:24;1.90;95.40
58638;DHT22;54976;51.510;7.522;2023-01-25T00:54:25;1.70;95.50
58638;DHT22;54976;51.510;7.522;2023-01-25T00:57:26;1.80;96.00
58638;DHT22;54976;51.510;7.522;2023-01-25T01:00:26;1.90;96.00
58638;DHT22;54976;51.510;7.522;2023-01-25T01:03:27;1.60;95.90
58638;DHT22;54976;51.510;7.522;2023-01-25T01:06:27;1.70;96.30
58638;DHT22;54976;51.510;7.522;2023-01-25T01:09:28;1.60;96.30
58638;DHT22;54976;51.510;7.522;2023-01-25T01:12:29;1.50;96.80
58638;DHT22;54976;51.510;7.522;2023-01-25T01:15:29;1.70;96.60
58638;DHT22;54976;51.510;7.522;2023-01-25T01:18:35;1.50;96.30
58638;DHT22;54976;51.510;7.522;2023-01-25T01:21:35;1.60;96.90
58638;DHT22;54976;51.510;7.522;2023-01-25T01:24:36;1.70;97.20
58638;DHT22;54976;51.510;7.522;2023-01-25T01:27:37;1.50;96.80
58638;DHT22;54976;51.510;7.522;2023-01-25T01:30:38;1.40;96.70
58638;DHT22;54976;51.510;7.522;2023-01-25T01:33:39;1.40;96.80
58638;DHT22;54976;51.510;7.522;2023-01-25T01:36:40;1.50;97.20
58638;DHT22;54976;51.510;7.522;2023-01-25T01:39:40;1.40;97.10
58638;DHT22;54976;51.510;7.522;2023-01-25T01:43:01;1.60;97.10
58638;DHT22;54976;51.510;7.522;2023-01-25T01:46:13;1.60;96.40
58638;DHT22;54976;51.510;7.522;2023-01-25T01:49:25;1.60;96.10
58638;DHT22;54976;51.510;7.522;2023-01-25T01:52:30;1.80;96.40
58638;DHT22;54976;51.510;7.522;2023-01-25T01:55:32;1.50;96.10
58638;DHT22;54976;51.510;7.522;2023-01-25T01:58:33;1.60;96.40
58638;DHT22;54976;51.510;7.522;2023-01-25T02:01:34;1.70;96.90
58638;DHT22;54976;51.510;7.522;2023-01-25T02:04:35;1.70;96.70
58638;DHT22;54976;51.510;7.522;2023-01-25T02:07:37;1.70;96.70
58638;DHT22;54976;51.510;7.522;2023-01-25T02:10:38;1.80;96.60
58638;DHT22;54976;51.510;7.522;2023-01-25T02:13:40;1.90;96.50
58638;DHT22;54976;51.510;7.522;2023-01-25T02:16:41;1.90;96.60
58638;DHT22;54976;51.510;7.522;2023-01-25T02:25:46;1.50;96.70
58638;DHT22;54976;51.510;7.522;2023-01-25T02:31:49;1.40;96.60
58638;DHT22;54976;51.510;7.522;2023-01-25T02:34:57;1.50;96.90
58638;DHT22;54976;51.510;7.522;2023-01-25T02:37:58;1.50;97.10
58638;DHT22;54976;51.510;7.522;2023-01-25T02:44:15;1.60;97.70
58638;DHT22;54976;51.510;7.522;2023-01-25T02:47:16;1.50;97.60
58638;DHT22;54976;51.510;7.522;2023-01-25T02:50:17;1.50;97.80
58638;DHT22;54976;51.510;7.522;2023-01-25T02:53:17;1.50;97.60
58638;DHT22;54976;51.510;7.522;2023-01-25T02:56:18;1.60;97.30
58638;DHT22;54976;51.510;7.522;2023-01-25T02:59:20;1.80;97.40
58638;DHT22;54976;51.510;7.522;2023-01-25T03:02:20;1.60;97.10
58638;DHT22;54976;51.510;7.522;2023-01-25T03:05:21;1.70;97.70
58638;DHT22;54976;51.510;7.522;2023-01-25T03:08:22;1.30;97.70
58638;DHT22;54976;51.510;7.522;2023-01-25T03:11:22;1.30;98.50
58638;DHT22;54976;51.510;7.522;2023-01-25T03:14:23;1.50;98.10
58638;DHT22;54976;51.510;7.522;2023-01-25T03:17:24;1.50;98.40
58638;DHT22;54976;51.510;7.522;2023-01-25T03:20:25;1.30;98.30
58638;DHT22;54976;51.510;7.522;2023-01-25T03:23:25;1.30;98.20
58638;DHT22;54976;51.510;7.522;2023-01-25T03:26:27;1.40;98.40
58638;DHT22;54976;51.510;7.522;2023-01-25T03:29:28;1.10;98.50
58638;DHT22;54976;51.510;7.522;2023-01-25T03:32:29;1.50;98.80
58638;DHT22;54976;51.510;7.522;2023-01-25T03:35:29;1.20;98.70
58638;DHT22;54976;51.510;7.522;2023-01-25T03:38:30;0.90;97.80
58638;DHT22;54976;51.510;7.522;2023-01-25T03:41:31;1.20;98.20
58638;DHT22;54976;51.510;7.522;2023-01-25T03:44:31;1.20;98.50
58638;DHT22;54976;51.510;7.522;2023-01-25T03:47:32;1.30;99.10
58638;DHT22;54976;51.510;7.522;2023-01-25T03:50:32;1.20;99.60
58638;DHT22;54976;51.510;7.522;2023-01-25T03:53:33;0.50;99.30
58638;DHT22;54976;51.510;7.522;2023-01-25T03:56:34;1.20;99.60
58638;DHT22;54976;51.510;7.522;2023-01-25T03:59:34;1.00;99.40
58638;DHT22;54976;51.510;7.522;2023-01-25T04:02:35;1.20;99.40
58638;DHT22;54976;51.510;7.522;2023-01-25T04:05:35;1.10;99.60
58638;DHT22;54976;51.510;7.522;2023-01-25T04:08:36;1.00;99.50
58638;DHT22;54976;51.510;7.522;2023-01-25T04:11:37;1.10;99.60
58638;DHT22;54976;51.510;7.522;2023-01-25T04:14:37;1.20;99.80
58638;DHT22;54976;51.510;7.522;2023-01-25T04:17:38;1.30;99.80
58638;DHT22;54976;51.510;7.522;2023-01-25T04:20:39;1.30;99.60
58638;DHT22;54976;51.510;7.522;2023-01-25T04:23:39;1.50;99.20
58638;DHT22;54976;51.510;7.522;2023-01-25T04:26:40;1.50;99.10
58638;DHT22;54976;51.510;7.522;2023-01-25T04:29:41;1.40;99.20
58638;DHT22;54976;51.510;7.522;2023-01-25T04:32:41;1.30;99.30
58638;DHT22;54976;51.510;7.522;2023-01-25T04:35:42;1.50;99.30
58638;DHT22;54976;51.510;7.522;2023-01-25T04:38:43;1.40;99.70
58638;DHT22;54976;51.510;7.522;2023-01-25T04:41:44;1.30;99.90
58638;DHT22;54976;51.510;7.522;2023-01-25T04:44:44;1.40;99.70
58638;DHT22;54976;51.510;7.522;2023-01-25T04:47:45;1.30;99.60
58638;DHT22;54976;51.510;7.522;2023-01-25T04:50:46;1.20;99.60
58638;DHT22;54976;51.510;7.522;2023-01-25T04:53:46;1.40;99.60
58638;DHT22;54976;51.510;7.522;2023-01-25T04:56:47;1.70;99.80
58638;DHT22;54976;51.510;7.522;2023-01-25T04:59:48;1.40;99.40
58638;DHT22;54976;51.510;7.522;2023-01-25T05:02:48;1.40;99.70
58638;DHT22;54976;51.510;7.522;2023-01-25T05:05:49;1.30;99.90
58638;DHT22;54976;51.510;7.522;2023-01-25T05:08:49;1.40;99.90
58638;DHT22;54976;51.510;7.522;2023-01-25T05:11:50;1.20;99.90
58638;DHT22;54976;51.510;7.522;2023-01-25T05:14:51;1.30;99.90
58638;DHT22;54976;51.510;7.522;2023-01-25T05:17:51;1.50;99.90
58638;DHT22;54976;51.510;7.522;2023-01-25T05:20:54;1.30;99.90
58638;DHT22;54976;51.510;7.522;2023-01-25T05:23:55;1.50;99.90
58638;DHT22;54976;51.510;7.522;2023-01-25T05:26:57;1.40;99.90
58638;DHT22;54976;51.510;7.522;2023-01-25T05:30:00;1.40;99.90
58638;DHT22;54976;51.510;7.522;2023-01-25T05:33:01;1.20;99.90
58638;DHT22;54976;51.510;7.522;2023-01-25T05:36:02;1.30;99.90
58638;DHT22;54976;51.510;7.522;2023-01-25T05:39:04;1.30;99.90
58638;DHT22;54976;51.510;7.522;2023-01-25T05:42:24;1.40;99.90
58638;DHT22;54976;51.510;7.522;2023-01-25T05:45:24;1.60;99.90
58638;DHT22;54976;51.510;7.522;2023-01-25T05:48:25;1.20;99.90
58638;DHT22;54976;51.510;7.522;2023-01-25T05:51:26;1.60;99.90
58638;DHT22;54976;51.510;7.522;2023-01-25T05:54:26;1.50;99.90
58638;DHT22;54976;51.510;7.522;2023-01-25T05:57:27;1.10;99.90
58638;DHT22;54976;51.510;7.522;2023-01-25T06:00:28;1.30;99.90
58638;DHT22;54976;51.510;7.522;2023-01-25T06:03:28;1.50;99.90
58638;DHT22;54976;51.510;7.522;2023-01-25T06:06:29;1.20;99.90
58638;DHT22;54976;51.510;7.522;2023-01-25T06:09:29;1.30;99.90
58638;DHT22;54976;51.510;7.522;2023-01-25T06:12:30;1.20;99.90
58638;DHT22;54976;51.510;7.522;2023-01-25T06:15:31;1.60;99.90
58638;DHT22;54976;51.510;7.522;2023-01-25T06:18:32;1.30;99.90
58638;DHT22;54976;51.510;7.522;2023-01-25T06:21:33;0.90;99.90
58638;DHT22;54976;51.510;7.522;2023-01-25T06:24:37;1.20;99.90
58638;DHT22;54976;51.510;7.522;2023-01-25T06:27:40;1.00;99.90
58638;DHT22;54976;51.510;7.522;2023-01-25T06:30:43;1.30;99.90
58638;DHT22;54976;51.510;7.522;2023-01-25T06:33:48;1.30;99.90
58638;DHT22;54976;51.510;7.522;2023-01-25T06:36:49;1.20;99.90
58638;DHT22;54976;51.510;7.522;2023-01-25T06:39:49;1.20;99.90
58638;DHT22;54976;51.510;7.522;2023-01-25T06:42:50;1.40;99.90
58638;DHT22;54976;51.510;7.522;2023-01-25T06:45:50;1.20;99.90
58638;DHT22;54976;51.510;7.522;2023-01-25T06:48:51;1.30;99.90
58638;DHT22;54976;51.510;7.522;2023-01-25T06:51:52;1.30;99.90
58638;DHT22;54976;51.510;7.522;2023-01-25T06:54:52;1.50;99.90
58638;DHT22;54976;51.510;7.522;2023-01-25T06:57:53;1.30;99.90
58638;DHT22;54976;51.510;7.522;2023-01-25T07:00:58;1.20;99.90
58638;DHT22;54976;51.510;7.522;2023-01-25T07:03:58;1.40;99.90
58638;DHT22;54976;51.510;7.522;2023-01-25T07:06:59;1.50;99.90
58638;DHT22;54976;51.510;7.522;2023-01-25T07:09:59;1.30;99.90
58638;DHT22;54976;51.510;7.522;2023-01-25T07:13:01;1.30;99.90
58638;DHT22;54976;51.510;7.522;2023-01-25T07:16:04;1.30;99.90
58638;DHT22;54976;51.510;7.522;2023-01-25T07:19:06;1.00;99.90
58638;DHT22;54976;51.510;7.522;2023-01-25T07:22:07;1.20;99.90
58638;DHT22;54976;51.510;7.522;2023-01-25T07:25:08;1.00;99.90
58638;DHT22;54976;51.510;7.522;2023-01-25T07:28:08;1.30;99.90
58638;DHT22;54976;51.510;7.522;2023-01-25T07:31:09;1.30;99.90
58638;DHT22;54976;51.510;7.522;2023-01-25T07:34:10;1.20;99.90
58638;DHT22;54976;51.510;7.522;2023-01-25T07:37:12;1.50;99.90
58638;DHT22;54976;51.510;7.522;2023-01-25T07:40:13;1.20;99.90
58638;DHT22;54976;51.510;7.522;2023-01-25T07:43:14;1.30;99.90
58638;DHT22;54976;51.510;7.522;2023-01-25T07:46:15;0.90;99.90
58638;DHT22;54976;51.510;7.522;2023-01-25T07:49:16;0.90;99.90
58638;DHT22;54976;51.510;7.522;2023-01-25T07:52:17;1.00;99.90
58638;DHT22;54976;51.510;7.522;2023-01-25T07:55:17;1.30;99.90
58638;DHT22;54976;51.510;7.522;2023-01-25T07:58:18;1.40;99.90
58638;DHT22;54976;51.510;7.522;2023-01-25T08:01:20;1.20;99.90
58638;DHT22;54976;51.510;7.522;2023-01-25T08:04:21;1.20;99.90
58638;DHT22;54976;51.510;7.522;2023-01-25T08:07:21;1.40;99.90
58638;DHT22;54976;51.510;7.522;2023-01-25T08:10:23;1.30;99.90
58638;DHT22;54976;51.510;7.522;2023-01-25T08:13:23;1.60;99.90
58638;DHT22;54976;51.510;7.522;2023-01-25T08:16:25;1.30;99.90
58638;DHT22;54976;51.510;7.522;2023-01-25T08:19:26;1.30;99.90
58638;DHT22;54976;51.510;7.522;2023-01-25T08:22:27;1.50;99.90
58638;DHT22;54976;51.510;7.522;2023-01-25T08:25:30;1.30;99.90
58638;DHT22;54976;51.510;7.522;2023-01-25T08:28:31;1.40;99.90
58638;DHT22;54976;51.510;7.522;2023-01-25T08:31:33;1.40;99.90
58638;DHT22;54976;51.510;7.522;2023-01-25T08:34:34;1.20;99.90
58638;DHT22;54976;51.510;7.522;2023-01-25T08:37:35;1.20;99.90
58638;DHT22;54976;51.510;7.522;2023-01-25T08:40:35;1.40;99.90
58638;DHT22;54976;51.510;7.522;2023-01-25T08:43:36;1.30;99.90
58638;DHT22;54976;51.510;7.522;2023-01-25T08:46:37;1.40;99.90
58638;DHT22;54976;51.510;7.522;2023-01-25T08:49:37;1.60;99.90
58638;DHT22;54976;51.510;7.522;2023-01-25T08:52:38;1.30;99.90
58638;DHT22;54976;51.510;7.522;2023-01-25T08:55:39;1.20;99.90
58638;DHT22;54976;51.510;7.522;2023-01-25T08:58:47;1.40;99.90
58638;DHT22;54976;51.510;7.522;2023-01-25T09:01:48;1.70;99.90
58638;DHT22;54976;51.510;7.522;2023-01-25T09:04:49;1.40;99.90
58638;DHT22;54976;51.510;7.522;2023-01-25T09:07:49;1.60;99.90
58638;DHT22;54976;51.510;7.522;2023-01-25T09:10:50;1.30;99.90
58638;DHT22;54976;51.510;7.522;2023-01-25T09:13:51;1.40;99.90
58638;DHT22;54976;51.510;7.522;2023-01-25T09:16:51;1.20;99.90
58638;DHT22;54976;51.510;7.522;2023-01-25T09:19:52;1.30;99.90
58638;DHT22;54976;51.510;7.522;2023-01-25T09:22:54;1.30;99.90
58638;DHT22;54976;51.510;7.522;2023-01-25T09:25:59;1.30;99.90
58638;DHT22;54976;51.510;7.522;2023-01-25T09:29:00;1.30;99.90
58638;DHT22;54976;51.510;7.522;2023-01-25T09:32:00;1.30;99.90
58638;DHT22;54976;51.510;7.522;2023-01-25T09:35:01;1.30;99.90
58638;DHT22;54976;51.510;7.522;2023-01-25T09:38:02;1.50;99.90
58638;DHT22;54976;51.510;7.522;2023-01-25T09:51:32;1.70;99.90
58638;DHT22;54976;51.510;7.522;2023-01-25T09:54:40;1.60;99.90
58638;DHT22;54976;51.510;7.522;2023-01-25T09:57:44;1.70;99.90
58638;DHT22;54976;51.510;7.522;2023-01-25T10:00:49;1.40;99.90
58638;DHT22;54976;51.510;7.522;2023-01-25T10:07:30;1.50;99.90
58638;DHT22;54976;51.510;7.522;2023-01-25T10:10:41;1.50;99.90
58638;DHT22;54976;51.510;7.522;2023-01-25T10:13:43;1.70;99.90
58638;DHT22;54976;51.510;7.522;2023-01-25T10:20:08;1.80;99.90
58638;DHT22;54976;51.510;7.522;2023-01-25T10:26:25;1.80;99.50
58638;DHT22;54976;51.510;7.522;2023-01-25T10:29:30;1.90;99.50
58638;DHT22;54976;51.510;7.522;2023-01-25T10:32:31;2.00;99.90
58638;DHT22;54976;51.510;7.522;2023-01-25T10:35:36;1.90;99.10
58638;DHT22;54976;51.510;7.522;2023-01-25T10:38:45;1.80;99.50
58638;DHT22;54976;51.510;7.522;2023-01-25T10:41:57;1.60;99.80
58638;DHT22;54976;51.510;7.522;2023-01-25T10:44:58;1.80;99.90
58638;DHT22;54976;51.510;7.522;2023-01-25T10:48:06;1.80;99.90
58638;DHT22;54976;51.510;7.522;2023-01-25T10:51:08;1.70;99.90
58638;DHT22;54976;51.510;7.522;2023-01-25T10:54:13;1.90;99.70
58638;DHT22;54976;51.510;7.522;2023-01-25T10:57:18;1.70;99.30
58638;DHT22;54976;51.510;7.522;2023-01-25T11:00:30;2.00;99.40
58638;DHT22;54976;51.510;7.522;2023-01-25T11:03:36;1.60;99.90
58638;DHT22;54976;51.510;7.522;2023-01-25T11:06:46;1.60;99.90
58638;DHT22;54976;51.510;7.522;2023-01-25T11:09:47;1.70;99.90
58638;DHT22;54976;51.510;7.522;2023-01-25T11:12:47;1.70;99.90
58638;DHT22;54976;51.510;7.522;2023-01-25T11:15:53;1.20;99.90
58638;DHT22;54976;51.510;7.522;2023-01-25T11:18:56;1.50;99.90
58638;DHT22;54976;51.510;7.522;2023-01-25T11:21:59;1.60;99.90
58638;DHT22;54976;51.510;7.522;2023-01-25T11:25:24;1.60;99.90
58638;DHT22;54976;51.510;7.522;2023-01-25T11:28:25;1.80;99.90
58638;DHT22;54976;51.510;7.522;2023-01-25T11:31:26;1.70;99.60
58638;DHT22;54976;51.510;7.522;2023-01-25T11:34:27;1.70;99.70
58638;DHT22;54976;51.510;7.522;2023-01-25T11:54:34;1.70;99.90
58638;DHT22;54976;51.510;7.522;2023-01-25T12:04:41;2.10;99.90
58638;DHT22;54976;51.510;7.522;2023-01-25T12:21:23;1.90;99.90
58638;DHT22;54976;51.510;7.522;2023-01-25T12:24:55;1.60;99.90
58638;DHT22;54976;51.510;7.522;2023-01-25T12:31:37;2.10;99.40
58638;DHT22;54976;51.510;7.522;2023-01-25T12:34:46;1.80;99.30
58638;DHT22;54976;51.510;7.522;2023-01-25T12:37:48;1.70;99.90
58638;DHT22;54976;51.510;7.522;2023-01-25T12:41:01;1.70;99.90
58638;DHT22;54976;51.510;7.522;2023-01-25T12:44:13;1.60;99.90
58638;DHT22;54976;51.510;7.522;2023-01-25T12:47:30;2.10;99.90
58638;DHT22;54976;51.510;7.522;2023-01-25T12:50:34;1.90;98.80
58638;DHT22;54976;51.510;7.522;2023-01-25T12:56:52;1.70;98.90
58638;DHT22;54976;51.510;7.522;2023-01-25T13:04:21;1.90;99.30
58638;DHT22;54976;51.510;7.522;2023-01-25T13:07:17;1.80;99.60
58638;DHT22;54976;51.510;7.522;2023-01-25T13:10:25;1.70;99.50
58638;DHT22;54976;51.510;7.522;2023-01-25T13:13:28;1.60;99.50
58638;DHT22;54976;51.510;7.522;2023-01-25T13:25:43;1.60;99.10
58638;DHT22;54976;51.510;7.522;2023-01-25T13:28:44;1.60;99.30
58638;DHT22;54976;51.510;7.522;2023-01-25T13:31:45;1.80;99.40
58638;DHT22;54976;51.510;7.522;2023-01-25T13:41:24;1.80;98.60
58638;DHT22;54976;51.510;7.522;2023-01-25T13:44:27;1.80;98.70
58638;DHT22;54976;51.510;7.522;2023-01-25T13:47:31;1.70;98.10
58638;DHT22;54976;51.510;7.522;2023-01-25T13:50:35;1.90;98.10
58638;DHT22;54976;51.510;7.522;2023-01-25T13:53:37;1.80;98.30
58638;DHT22;54976;51.510;7.522;2023-01-25T13:56:39;1.70;98.50
58638;DHT22;54976;51.510;7.522;2023-01-25T13:59:40;1.80;98.50
58638;DHT22;54976;51.510;7.522;2023-01-25T14:02:42;1.80;98.70
58638;DHT22;54976;51.510;7.522;2023-01-25T14:05:51;2.10;98.20
58638;DHT22;54976;51.510;7.522;2023-01-25T14:08:56;1.80;98.90
58638;DHT22;54976;51.510;7.522;2023-01-25T14:11:59;2.00;98.30
58638;DHT22;54976;51.510;7.522;2023-01-25T14:18:25;1.90;98.50
58638;DHT22;54976;51.510;7.522;2023-01-25T14:21:28;1.30;98.70
58638;DHT22;54976;51.510;7.522;2023-01-25T14:24:28;1.70;98.90
58638;DHT22;54976;51.510;7.522;2023-01-25T14:27:29;1.80;98.70
58638;DHT22;54976;51.510;7.522;2023-01-25T14:30:32;1.90;99.10
58638;DHT22;54976;51.510;7.522;2023-01-25T14:33:33;1.90;98.60
58638;DHT22;54976;51.510;7.522;2023-01-25T14:36:44;2.00;98.20
58638;DHT22;54976;51.510;7.522;2023-01-25T14:39:45;2.00;98.30
58638;DHT22;54976;51.510;7.522;2023-01-25T14:42:47;2.10;98.20
58638;DHT22;54976;51.510;7.522;2023-01-25T14:45:48;1.80;98.30
58638;DHT22;54976;51.510;7.522;2023-01-25T14:48:49;2.00;98.10
58638;DHT22;54976;51.510;7.522;2023-01-25T14:51:58;2.00;98.00
58638;DHT22;54976;51.510;7.522;2023-01-25T14:55:01;1.80;97.70
58638;DHT22;54976;51.510;7.522;2023-01-25T14:58:02;2.00;97.70
58638;DHT22;54976;51.510;7.522;2023-01-25T15:01:03;2.00;97.80
58638;DHT22;54976;51.510;7.522;2023-01-25T15:04:09;1.70;97.90
58638;DHT22;54976;51.510;7.522;2023-01-25T15:07:41;1.70;98.50
58638;DHT22;54976;51.510;7.522;2023-01-25T15:14:10;1.90;98.70
58638;DHT22;54976;51.510;7.522;2023-01-25T15:17:35;1.80;99.00
58638;DHT22;54976;51.510;7.522;2023-01-25T15:20:40;1.40;99.10
58638;DHT22;54976;51.510;7.522;2023-01-25T15:23:43;1.60;99.10
58638;DHT22;54976;51.510;7.522;2023-01-25T15:26:48;1.70;98.90
58638;DHT22;54976;51.510;7.522;2023-01-25T15:29:49;1.60;98.20
58638;DHT22;54976;51.510;7.522;2023-01-25T15:32:50;1.60;98.30
58638;DHT22;54976;51.510;7.522;2023-01-25T15:35:51;1.60;98.10
58638;DHT22;54976;51.510;7.522;2023-01-25T15:38:52;1.60;98.10
58638;DHT22;54976;51.510;7.522;2023-01-25T15:41:53;1.50;98.50
58638;DHT22;54976;51.510;7.522;2023-01-25T15:44:54;1.60;98.80
58638;DHT22;54976;51.510;7.522;2023-01-25T15:47:54;1.80;99.30
58638;DHT22;54976;51.510;7.522;2023-01-25T15:50:55;1.70;99.10
58638;DHT22;54976;51.510;7.522;2023-01-25T15:53:56;1.70;98.70
58638;DHT22;54976;51.510;7.522;2023-01-25T15:56:58;1.50;99.10
58638;DHT22;54976;51.510;7.522;2023-01-25T15:59:59;1.40;99.00
58638;DHT22;54976;51.510;7.522;2023-01-25T16:03:00;1.70;99.40
58638;DHT22;54976;51.510;7.522;2023-01-25T16:06:04;1.10;99.10
58638;DHT22;54976;51.510;7.522;2023-01-25T16:09:23;1.60;99.30
58638;DHT22;54976;51.510;7.522;2023-01-25T16:12:24;1.70;99.40
58638;DHT22;54976;51.510;7.522;2023-01-25T16:15:25;1.60;99.30
58638;DHT22;54976;51.510;7.522;2023-01-25T16:18:25;1.70;99.30
58638;DHT22;54976;51.510;7.522;2023-01-25T16:21:26;1.70;99.20
58638;DHT22;54976;51.510;7.522;2023-01-25T16:24:27;1.70;98.90
58638;DHT22;54976;51.510;7.522;2023-01-25T16:27:27;1.60;98.90
58638;DHT22;54976;51.510;7.522;2023-01-25T16:30:35;1.70;99.00
58638;DHT22;54976;51.510;7.522;2023-01-25T16:33:35;1.70;98.90
58638;DHT22;54976;51.510;7.522;2023-01-25T16:36:36;1.90;98.70
58638;DHT22;54976;51.510;7.522;2023-01-25T16:39:36;1.40;98.60
58638;DHT22;54976;51.510;7.522;2023-01-25T16:42:37;1.70;99.20
58638;DHT22;54976;51.510;7.522;2023-01-25T16:45:37;1.40;99.10
58638;DHT22;54976;51.510;7.522;2023-01-25T16:48:39;1.60;99.20
58638;DHT22;54976;51.510;7.522;2023-01-25T16:51:39;1.40;99.30
58638;DHT22;54976;51.510;7.522;2023-01-25T16:54:40;1.50;99.40
58638;DHT22;54976;51.510;7.522;2023-01-25T16:57:42;1.70;99.30
58638;DHT22;54976;51.510;7.522;2023-01-25T17:00:43;1.40;99.30
58638;DHT22;54976;51.510;7.522;2023-01-25T17:03:45;1.50;99.40
58638;DHT22;54976;51.510;7.522;2023-01-25T17:06:48;1.60;99.40
58638;DHT22;54976;51.510;7.522;2023-01-25T17:09:49;1.60;99.60
58638;DHT22;54976;51.510;7.522;2023-01-25T17:12:49;1.40;99.30
58638;DHT22;54976;51.510;7.522;2023-01-25T17:15:54;1.80;99.50
58638;DHT22;54976;51.510;7.522;2023-01-25T17:18:56;1.40;99.20
58638;DHT22;54976;51.510;7.522;2023-01-25T17:21:58;1.60;99.00
58638;DHT22;54976;51.510;7.522;2023-01-25T17:24:58;1.50;98.90
58638;DHT22;54976;51.510;7.522;2023-01-25T17:27:59;1.50;98.80
58638;DHT22;54976;51.510;7.522;2023-01-25T17:30:59;1.50;98.60
58638;DHT22;54976;51.510;7.522;2023-01-25T17:34:03;1.50;98.90
58638;DHT22;54976;51.510;7.522;2023-01-25T17:37:04;1.50;98.80
58638;DHT22;54976;51.510;7.522;2023-01-25T17:40:05;1.70;98.50
58638;DHT22;54976;51.510;7.522;2023-01-25T17:43:06;1.60;98.40
58638;DHT22;54976;51.510;7.522;2023-01-25T17:46:16;1.80;98.00
58638;DHT22;54976;51.510;7.522;2023-01-25T17:49:19;1.40;97.70
58638;DHT22;54976;51.510;7.522;2023-01-25T17:52:21;1.40;98.50
58638;DHT22;54976;51.510;7.522;2023-01-25T17:55:22;1.30;98.50
58638;DHT22;54976;51.510;7.522;2023-01-25T17:58:24;1.30;98.30
58638;DHT22;54976;51.510;7.522;2023-01-25T18:01:26;1.50;98.80
58638;DHT22;54976;51.510;7.522;2023-01-25T18:04:28;1.50;98.70
58638;DHT22;54976;51.510;7.522;2023-01-25T18:07:29;1.70;98.10
58638;DHT22;54976;51.510;7.522;2023-01-25T18:10:29;1.40;97.90
58638;DHT22;54976;51.510;7.522;2023-01-25T18:13:30;1.50;98.40
58638;DHT22;54976;51.510;7.522;2023-01-25T18:16:31;1.50;98.10
58638;DHT22;54976;51.510;7.522;2023-01-25T18:19:32;1.30;98.10
58638;DHT22;54976;51.510;7.522;2023-01-25T18:22:33;1.50;98.40
58638;DHT22;54976;51.510;7.522;2023-01-25T18:25:35;1.40;98.30
58638;DHT22;54976;51.510;7.522;2023-01-25T18:28:35;1.60;98.50
58638;DHT22;54976;51.510;7.522;2023-01-25T18:31:36;1.40;98.20
58638;DHT22;54976;51.510;7.522;2023-01-25T18:34:37;1.40;98.20
58638;DHT22;54976;51.510;7.522;2023-01-25T18:37:38;1.40;97.90
58638;DHT22;54976;51.510;7.522;2023-01-25T18:40:42;1.30;98.10
58638;DHT22;54976;51.510;7.522;2023-01-25T18:43:43;1.40;98.40
58638;DHT22;54976;51.510;7.522;2023-01-25T18:46:44;1.30;98.40
58638;DHT22;54976;51.510;7.522;2023-01-25T18:49:47;1.40;98.30
58638;DHT22;54976;51.510;7.522;2023-01-25T18:52:51;1.40;98.30
58638;DHT22;54976;51.510;7.522;2023-01-25T18:59:02;1.40;98.30
58638;DHT22;54976;51.510;7.522;2023-01-25T19:02:03;1.60;98.20
58638;DHT22;54976;51.510;7.522;2023-01-25T19:05:04;1.30;98.00
58638;DHT22;54976;51.510;7.522;2023-01-25T19:08:05;1.20;98.00
58638;DHT22;54976;51.510;7.522;2023-01-25T19:11:12;1.20;98.00
58638;DHT22;54976;51.510;7.522;2023-01-25T19:14:13;1.10;98.10
58638;DHT22;54976;51.510;7.522;2023-01-25T19:17:13;1.00;98.40
58638;DHT22;54976;51.510;7.522;2023-01-25T19:20:14;1.00;98.40
58638;DHT22;54976;51.510;7.522;2023-01-25T19:23:15;1.30;98.90
58638;DHT22;54976;51.510;7.522;2023-01-25T19:26:17;1.20;98.10
58638;DHT22;54976;51.510;7.522;2023-01-25T19:29:18;1.10;98.20
58638;DHT22;54976;51.510;7.522;2023-01-25T19:32:19;0.70;98.40
58638;DHT22;54976;51.510;7.522;2023-01-25T19:35:23;1.00;98.50
58638;DHT22;54976;51.510;7.522;2023-01-25T19:38:23;0.60;98.40
58638;DHT22;54976;51.510;7.522;2023-01-25T19:41:26;1.20;98.80
58638;DHT22;54976;51.510;7.522;2023-01-25T19:44:27;1.00;99.10
58638;DHT22;54976;51.510;7.522;2023-01-25T19:47:27;1.00;98.50
58638;DHT22;54976;51.510;7.522;2023-01-25T19:50:28;1.30;98.60
58638;DHT22;54976;51.510;7.522;2023-01-25T19:53:29;1.00;99.00
58638;DHT22;54976;51.510;7.522;2023-01-25T19:56:35;1.20;99.00
58638;DHT22;54976;51.510;7.522;2023-01-25T19:59:36;1.20;99.10
58638;DHT22;54976;51.510;7.522;2023-01-25T20:02:36;1.30;98.90
58638;DHT22;54976;51.510;7.522;2023-01-25T20:05:37;1.10;98.80
58638;DHT22;54976;51.510;7.522;2023-01-25T20:08:40;1.10;99.10
58638;DHT22;54976;51.510;7.522;2023-01-25T20:11:41;1.00;99.00
58638;DHT22;54976;51.510;7.522;2023-01-25T20:14:41;1.20;99.20
58638;DHT22;54976;51.510;7.522;2023-01-25T20:17:42;1.00;99.00
58638;DHT22;54976;51.510;7.522;2023-01-25T20:20:44;1.20;98.90
58638;DHT22;54976;51.510;7.522;2023-01-25T20:23:46;1.10;98.80
58638;DHT22;54976;51.510;7.522;2023-01-25T20:26:47;1.00;98.80
58638;DHT22;54976;51.510;7.522;2023-01-25T20:29:48;1.00;98.20
58638;DHT22;54976;51.510;7.522;2023-01-25T20:32:48;0.90;98.60
58638;DHT22;54976;51.510;7.522;2023-01-25T20:35:49;1.10;99.50
58638;DHT22;54976;51.510;7.522;2023-01-25T20:38:50;1.10;99.30
58638;DHT22;54976;51.510;7.522;2023-01-25T20:41:50;1.20;99.10
58638;DHT22;54976;51.510;7.522;2023-01-25T20:44:52;1.10;99.10
58638;DHT22;54976;51.510;7.522;2023-01-25T20:47:53;1.00;99.10
58638;DHT22;54976;51.510;7.522;2023-01-25T20:51:04;1.00;99.20
58638;DHT22;54976;51.510;7.522;2023-01-25T20:54:05;1.10;99.10
58638;DHT22;54976;51.510;7.522;2023-01-25T20:57:05;1.10;98.30
58638;DHT22;54976;51.510;7.522;2023-01-25T21:00:06;1.10;98.20
58638;DHT22;54976;51.510;7.522;2023-01-25T21:03:08;0.90;98.20
58638;DHT22;54976;51.510;7.522;2023-01-25T21:06:09;1.10;98.80
58638;DHT22;54976;51.510;7.522;2023-01-25T21:09:11;1.10;98.30
58638;DHT22;54976;51.510;7.522;2023-01-25T21:12:12;0.90;98.30
58638;DHT22;54976;51.510;7.522;2023-01-25T21:15:12;0.80;98.60
58638;DHT22;54976;51.510;7.522;2023-01-25T21:18:16;0.80;98.80
58638;DHT22;54976;51.510;7.522;2023-01-25T21:21:22;0.60;99.30